Time;durP1;ratioP1;P1;durP2;ratioP2;P2;SDS_P1;SDS_P2;PMS_P1;PMS_P2;Temp;Humidity;BMP_temperature;BMP_pressure;BME280_temperature;BME280_humidity;BME280_pressure;Samples;Min_cycle;Max_cycle;Signal;HPM_P1;HPM_P2
2024/04/17 00:01:15;;;;;;;12.77;11.57;;;;;;;6.75;83.01;97190.94;5361787;26;20008;-74
2024/04/17 00:03:41;;;;;;;9.85;8.95;;;;;;;6.69;82.98;97199.16;5354305;26;20011;-74
2024/04/17 00:06:06;;;;;;;10.20;9.30;;;;;;;6.74;83.78;97191.19;5333471;26;20015;-74
2024/04/17 00:08:32;;;;;;;9.52;8.57;;;;;;;6.70;83.42;97182.03;5316734;26;20399;-74
2024/04/17 00:10:57;;;;;;;9.48;8.68;;;;;;;6.81;83.32;97192.63;5302415;26;20020;-74
2024/04/17 00:13:23;;;;;;;11.98;10.88;;;;;;;6.74;83.16;97186.66;5329994;26;20475;-75
2024/04/17 00:15:49;;;;;;;11.43;10.23;;;;;;;6.76;82.76;97179.19;5338924;26;20001;-74
2024/04/17 00:18:14;;;;;;;11.68;10.55;;;;;;;6.89;82.76;97194.91;5353853;26;20020;-74
2024/04/17 00:20:40;;;;;;;11.23;10.13;;;;;;;6.76;82.91;97183.72;5336611;26;20107;-74
2024/04/17 00:23:05;;;;;;;11.57;10.45;;;;;;;6.80;83.28;97201.72;5353573;26;20082;-74
2024/04/17 00:25:31;;;;;;;11.55;10.45;;;;;;;6.61;83.29;97186.16;5347705;26;20021;-77
2024/04/17 00:27:56;;;;;;;12.48;11.27;;;;;;;6.56;83.52;97192.25;5320589;26;20011;-75
2024/04/17 00:30:22;;;;;;;12.48;11.27;;;;;;;6.58;83.73;97203.50;5330872;26;20005;-74
2024/04/17 00:32:47;;;;;;;12.02;10.93;;;;;;;6.38;84.18;97176.44;5287795;26;20013;-72
2024/04/17 00:35:13;;;;;;;12.80;11.57;;;;;;;6.55;84.45;97204.00;5312160;26;20012;-73
2024/04/17 00:37:38;;;;;;;11.88;10.75;;;;;;;6.48;84.20;97192.66;5365311;26;20039;-73
2024/04/17 00:40:04;;;;;;;12.07;10.90;;;;;;;6.52;84.50;97196.47;5353603;26;20012;-74
2024/04/17 00:42:30;;;;;;;13.68;11.18;;;;;;;6.61;84.24;97196.88;5356607;26;20005;-73
2024/04/17 00:44:55;;;;;;;12.43;11.32;;;;;;;6.64;84.25;97199.88;5319076;26;20008;-73
2024/04/17 00:47:21;;;;;;;12.50;11.30;;;;;;;6.63;84.08;97190.22;5290112;26;20001;-74
2024/04/17 00:49:46;;;;;;;13.30;12.02;;;;;;;6.69;84.35;97202.63;5320895;26;20001;-73
2024/04/17 00:52:12;;;;;;;13.48;12.18;;;;;;;6.78;84.02;97201.16;5338421;26;20455;-74
2024/04/17 00:54:38;;;;;;;12.68;11.48;;;;;;;6.82;83.85;97199.63;5333960;26;20457;-75
2024/04/17 00:57:04;;;;;;;13.10;11.82;;;;;;;6.66;83.65;97168.34;5358326;26;20577;-74
2024/04/17 00:59:29;;;;;;;12.68;11.40;;;;;;;6.75;83.40;97182.91;5316749;26;20005;-74
2024/04/17 01:01:56;;;;;;;13.48;12.18;;;;;;;6.83;83.69;97200.44;5330981;26;20023;-74
2024/04/17 01:04:21;;;;;;;13.32;12.05;;;;;;;6.88;83.55;97193.28;5351125;26;20000;-74
2024/04/17 01:06:47;;;;;;;12.80;11.60;;;;;;;6.79;83.39;97184.03;5326478;26;20040;-74
2024/04/17 01:09:12;;;;;;;12.95;11.68;;;;;;;6.89;83.53;97196.75;5272565;26;20350;-74
2024/04/17 01:11:41;;;;;;;14.45;11.77;;;;;;;6.90;83.48;97185.84;5300120;26;20333;-74
2024/04/17 01:14:08;;;;;;;12.85;11.65;;;;;;;6.88;83.22;97182.56;5285133;26;20005;-74
2024/04/17 01:16:33;;;;;;;13.07;11.88;;;;;;;7.04;83.32;97193.50;5355617;26;20020;-74
2024/04/17 01:18:59;;;;;;;15.15;13.75;;;;;;;7.07;83.42;97193.81;5316905;26;20004;-74
2024/04/17 01:21:25;;;;;;;13.90;12.60;;;;;;;7.06;83.78;97196.75;5267974;26;20005;-74
2024/04/17 01:23:52;;;;;;;13.93;12.55;;;;;;;7.03;83.37;97183.84;5314748;26;20534;-75
2024/04/17 01:26:17;;;;;;;14.73;13.23;;;;;;;7.03;83.40;97189.19;5314800;26;20016;-74
2024/04/17 01:28:43;;;;;;;15.50;14.00;;;;;;;6.94;83.68;97194.97;5345120;26;20001;-73
2024/04/17 01:31:08;;;;;;;15.88;14.38;;;;;;;6.95;84.16;97188.56;5356938;26;20004;-73
2024/04/17 01:33:33;;;;;;;16.05;14.43;;;;;;;6.77;83.84;97178.13;5329620;26;20015;-74
2024/04/17 01:35:59;;;;;;;15.88;14.05;;;;;;;6.89;83.81;97178.84;5354084;26;20001;-73
2024/04/17 01:38:24;;;;;;;16.45;14.85;;;;;;;6.94;83.68;97178.94;5352011;26;20470;-73
2024/04/17 01:40:49;;;;;;;15.27;13.77;;;;;;;7.08;83.50;97190.09;5314395;26;20017;-73
2024/04/17 01:43:15;;;;;;;14.55;13.07;;;;;;;7.14;83.48;97180.28;5313612;26;20016;-74
2024/04/17 01:45:45;;;;;;;15.82;14.30;;;;;;;7.11;83.61;97183.44;5322900;26;20019;-73
2024/04/17 01:48:10;;;;;;;15.18;13.68;;;;;;;7.05;83.44;97169.16;5361264;26;20432;-74
2024/04/17 01:50:36;;;;;;;16.10;14.40;;;;;;;7.16;83.25;97178.16;5286721;26;20012;-74
2024/04/17 01:53:01;;;;;;;15.68;14.13;;;;;;;6.98;83.19;97155.97;5313479;26;20001;-74
2024/04/17 01:55:27;;;;;;;16.08;14.55;;;;;;;7.15;83.10;97171.16;5318226;26;20001;-75
2024/04/17 01:57:54;;;;;;;16.35;14.63;;;;;;;7.04;83.72;97169.41;5328850;26;20082;-74
2024/04/17 02:00:21;;;;;;;15.80;14.13;;;;;;;7.04;83.01;97164.88;5309682;26;20000;-76
2024/04/17 02:02:46;;;;;;;15.38;13.88;;;;;;;7.12;82.87;97177.03;5358770;26;20352;-75
2024/04/17 02:05:12;;;;;;;15.63;14.02;;;;;;;7.13;82.66;97167.94;5308175;26;20015;-75
2024/04/17 02:07:37;;;;;;;14.93;13.40;;;;;;;7.10;82.74;97165.72;5308498;27;20010;-74
2024/04/17 02:10:03;;;;;;;14.45;13.07;;;;;;;7.21;82.62;97175.53;5306714;26;20005;-75
2024/04/17 02:12:29;;;;;;;16.52;14.82;;;;;;;7.25;82.34;97182.84;5328925;26;20028;-75
2024/04/17 02:14:54;;;;;;;16.60;14.68;;;;;;;7.22;82.65;97177.16;5335282;26;20467;-75
2024/04/17 02:17:20;;;;;;;16.88;15.07;;;;;;;7.12;82.28;97155.63;5290123;26;20004;-74
2024/04/17 02:19:45;;;;;;;17.15;15.38;;;;;;;7.16;82.68;97175.47;5303341;26;20016;-76
2024/04/17 02:22:10;;;;;;;15.98;14.38;;;;;;;7.11;82.01;97165.50;5322371;26;20006;-75
2024/04/17 02:24:36;;;;;;;15.60;14.00;;;;;;;7.13;82.40;97178.63;5300072;26;20001;-75
2024/04/17 02:27:01;;;;;;;15.48;13.93;;;;;;;6.93;81.99;97165.81;5306838;27;20013;-74
2024/04/17 02:29:27;;;;;;;15.20;13.75;;;;;;;6.97;82.38;97194.50;5333436;26;20103;-74
2024/04/17 02:31:52;;;;;;;16.35;14.75;;;;;;;6.79;82.00;97170.66;5333693;26;20001;-75
2024/04/17 02:34:17;;;;;;;15.98;14.38;;;;;;;6.83;82.45;97176.34;5362018;26;20023;-74
2024/04/17 02:36:43;;;;;;;15.93;14.43;;;;;;;6.82;82.36;97177.38;5292867;26;20005;-74
2024/04/17 02:39:08;;;;;;;16.83;15.15;;;;;;;6.88;82.18;97185.25;5348017;26;20013;-75
2024/04/17 02:41:33;;;;;;;15.52;13.93;;;;;;;6.96;82.11;97194.72;5331252;26;20474;-75
2024/04/17 02:43:59;;;;;;;14.40;13.00;;;;;;;6.90;82.49;97179.66;5295427;27;20085;-75
2024/04/17 02:46:24;;;;;;;16.17;14.55;;;;;;;6.86;82.48;97173.97;5327778;26;20004;-76
2024/04/17 02:48:50;;;;;;;15.50;14.02;;;;;;;6.96;82.46;97195.53;5326724;26;20007;-76
2024/04/17 02:51:15;;;;;;;16.15;14.55;;;;;;;7.02;82.28;97201.78;5317817;26;20024;-76
2024/04/17 02:53:40;;;;;;;16.80;15.07;;;;;;;7.03;82.64;97199.91;5301954;26;20041;-75
2024/04/17 02:56:06;;;;;;;18.98;16.23;;;;;;;7.06;82.56;97194.06;5320778;26;20007;-76
2024/04/17 02:58:31;;;;;;;17.45;15.73;;;;;;;7.08;82.38;97200.78;5288275;26;20476;-75
2024/04/17 03:00:56;;;;;;;24.33;20.58;;;;;;;7.02;82.99;97198.28;5322206;26;20013;-76
2024/04/17 03:03:22;;;;;;;25.13;22.33;;;;;;;7.10;82.53;97211.25;5300924;26;20020;-75
2024/04/17 03:05:50;;;;;;;23.52;20.65;;;;;;;7.11;82.69;97212.88;5350719;26;20015;-75
2024/04/17 03:08:16;;;;;;;21.48;19.13;;;;;;;7.11;82.67;97223.59;5329207;26;20043;-75
2024/04/17 03:10:41;;;;;;;19.55;17.55;;;;;;;7.09;82.70;97221.16;5330498;26;20006;-74
2024/04/17 03:13:06;;;;;;;17.52;15.82;;;;;;;6.90;82.33;97185.84;5339687;26;20004;-76
2024/04/17 03:15:34;;;;;;;16.02;14.32;;;;;;;7.12;82.57;97211.84;5335010;26;20001;-76
2024/04/17 03:17:59;;;;;;;17.23;15.43;;;;;;;7.07;82.88;97212.53;5325044;26;20009;-75
2024/04/17 03:20:24;;;;;;;16.83;15.13;;;;;;;7.00;82.88;97203.09;5328133;26;20001;-76
2024/04/17 03:22:50;;;;;;;19.70;17.38;;;;;;;7.01;82.95;97208.19;5316365;26;20015;-76
2024/04/17 03:25:15;;;;;;;19.58;17.48;;;;;;;7.00;82.26;97205.78;5320192;26;20020;-76
2024/04/17 03:27:40;;;;;;;15.95;14.45;;;;;;;7.04;82.49;97212.25;5361007;26;20005;-77
2024/04/17 03:30:07;;;;;;;19.38;17.48;;;;;;;7.16;82.50;97226.34;5295914;26;20082;-75
2024/04/17 03:32:32;;;;;;;20.70;18.48;;;;;;;7.16;82.51;97226.34;5288622;26;20078;-75
2024/04/17 03:34:57;;;;;;;18.20;16.33;;;;;;;7.01;81.75;97210.03;5331416;26;20012;-75
2024/04/17 03:37:23;;;;;;;20.85;18.75;;;;;;;7.12;82.83;97235.94;5361813;26;20005;-76
2024/04/17 03:39:48;;;;;;;18.88;17.08;;;;;;;7.07;82.69;97225.16;5319827;26;20001;-76
2024/04/17 03:42:13;;;;;;;17.45;15.73;;;;;;;7.08;82.35;97237.44;5329679;26;20463;-77
2024/04/17 03:44:39;;;;;;;18.88;16.88;;;;;;;6.85;82.94;97217.88;5338355;26;20068;-76
2024/04/17 03:47:04;;;;;;;17.58;15.80;;;;;;;6.88;82.67;97220.03;5290184;26;20445;-76
2024/04/17 03:50:04;;;;;;;19.77;17.67;;;;;;;6.84;82.53;97234.97;5307807;26;20098;-76
2024/04/17 03:52:39;;;;;;;17.50;15.73;;;;;;;6.92;82.77;97229.22;5283404;26;20001;-77
2024/04/17 03:55:07;;;;;;;17.83;16.03;;;;;;;6.94;82.95;97235.13;5281007;27;20006;-75
2024/04/17 03:57:33;;;;;;;18.70;16.73;;;;;;;6.93;82.86;97238.84;5315037;26;20004;-75
2024/04/17 03:59:58;;;;;;;17.77;15.98;;;;;;;6.89;82.69;97227.03;5367154;26;20451;-76
2024/04/17 04:02:24;;;;;;;18.55;16.65;;;;;;;6.92;82.73;97234.56;5346352;26;20456;-74
2024/04/17 04:04:50;;;;;;;19.05;17.15;;;;;;;6.93;82.57;97236.16;5300322;27;20032;-76
2024/04/17 04:07:15;;;;;;;36.30;32.03;;;;;;;6.70;82.61;97206.91;5308009;26;20005;-77
2024/04/17 04:09:40;;;;;;;122.97;97.97;;;;;;;6.72;83.10;97226.19;5338530;26;20001;-76
2024/04/17 04:12:06;;;;;;;27.88;24.92;;;;;;;6.58;82.53;97192.81;5315154;26;20106;-76
2024/04/17 04:14:32;;;;;;;18.38;16.02;;;;;;;6.66;82.58;97232.53;5337409;21;20014;-74
2024/04/17 04:16:57;;;;;;;19.10;17.20;;;;;;;6.64;82.84;97240.00;5411632;26;20011;-74
2024/04/17 04:19:23;;;;;;;19.35;17.05;;;;;;;6.68;82.55;97246.47;5402937;26;20004;-74
2024/04/17 04:21:48;;;;;;;17.65;15.75;;;;;;;6.59;82.93;97255.97;5379825;26;19997;-74
2024/04/17 04:24:16;;;;;;;18.52;16.55;;;;;;;6.57;82.42;97247.38;5360089;26;19995;-74
2024/04/17 04:26:42;;;;;;;17.67;15.85;;;;;;;6.21;82.82;97203.16;5342625;26;20435;-74
2024/04/17 04:29:08;;;;;;;16.83;15.20;;;;;;;6.46;83.18;97253.59;5346749;26;20015;-74
2024/04/17 04:31:37;;;;;;;18.05;16.20;;;;;;;6.12;83.42;97193.91;5383581;26;20000;-74
2024/04/17 04:34:05;;;;;;;17.55;15.85;;;;;;;6.50;83.17;97260.09;5361871;26;20510;-74
2024/04/17 04:36:31;;;;;;;21.42;19.30;;;;;;;6.22;83.26;97204.78;5348393;26;20022;-75
2024/04/17 04:38:56;;;;;;;17.85;16.00;;;;;;;6.38;83.46;97256.66;5350576;26;20459;-74
2024/04/17 04:41:22;;;;;;;18.45;16.52;;;;;;;6.24;83.41;97228.59;5390872;26;20014;-75
2024/04/17 04:43:47;;;;;;;18.92;16.95;;;;;;;6.26;83.34;97231.84;5371260;26;19999;-75
2024/04/17 04:46:13;;;;;;;18.67;16.73;;;;;;;6.50;83.45;97276.13;5386377;26;20013;-75
2024/04/17 04:48:39;;;;;;;19.75;17.65;;;;;;;6.28;83.76;97235.09;5367978;26;19996;-75
2024/04/17 04:51:04;;;;;;;19.60;17.67;;;;;;;6.54;83.29;97271.91;5357506;26;20348;-75
2024/04/17 04:53:30;;;;;;;18.30;16.50;;;;;;;6.35;83.15;97235.75;5350693;26;20018;-75
2024/04/17 04:55:57;;;;;;;18.42;16.63;;;;;;;6.49;83.57;97261.13;5364389;26;19999;-76
2024/04/17 04:58:22;;;;;;;19.33;17.33;;;;;;;6.56;83.37;97277.03;5361817;26;20417;-74
2024/04/17 05:00:48;;;;;;;19.75;17.65;;;;;;;6.67;83.05;97286.88;5351489;26;20008;-76
2024/04/17 05:03:13;;;;;;;19.55;17.45;;;;;;;6.50;83.52;97276.13;5321145;26;20011;-75
2024/04/17 05:05:40;;;;;;;18.27;16.48;;;;;;;6.53;83.64;97281.00;5378854;26;20004;-75
2024/04/17 05:08:06;;;;;;;19.58;17.38;;;;;;;6.63;83.31;97281.16;5374073;26;20007;-74
2024/04/17 05:10:31;;;;;;;20.58;18.17;;;;;;;6.57;83.40;97276.78;5372167;26;20005;-74
2024/04/17 05:12:56;;;;;;;19.17;17.08;;;;;;;6.59;83.36;97282.72;5364912;26;20000;-75
2024/04/17 05:15:22;;;;;;;20.67;17.20;;;;;;;6.67;83.51;97298.38;5323070;26;20003;-74
2024/04/17 05:17:47;;;;;;;17.83;16.02;;;;;;;6.57;83.66;97290.16;5380080;26;20000;-75
2024/04/17 05:20:12;;;;;;;20.70;18.58;;;;;;;6.65;83.16;97292.44;5348045;26;20009;-74
2024/04/17 05:22:38;;;;;;;18.98;17.05;;;;;;;6.62;83.25;97278.75;5407687;26;19996;-75
2024/04/17 05:25:03;;;;;;;19.20;17.30;;;;;;;6.69;83.05;97287.44;5337093;26;20011;-75
2024/04/17 05:27:29;;;;;;;19.88;17.80;;;;;;;6.77;83.63;97295.03;5319518;26;20011;-75
2024/04/17 05:29:55;;;;;;;17.88;16.08;;;;;;;6.57;82.79;97262.59;5314555;26;20000;-75
2024/04/17 05:32:20;;;;;;;18.45;16.60;;;;;;;6.64;83.34;97284.66;5340133;26;20004;-75
2024/04/17 05:34:46;;;;;;;17.85;16.08;;;;;;;6.85;83.18;97305.34;5328216;26;20076;-75
2024/04/17 05:37:11;;;;;;;17.60;15.90;;;;;;;6.91;82.82;97307.88;5330592;26;20044;-75
2024/04/17 05:39:37;;;;;;;18.80;16.80;;;;;;;6.97;82.59;97304.25;5353732;26;20014;-76
2024/04/17 05:42:02;;;;;;;18.55;16.70;;;;;;;6.77;82.37;97271.78;5356355;26;20018;-74
2024/04/17 05:44:29;;;;;;;18.15;16.35;;;;;;;6.94;82.54;97296.69;5356801;26;20004;-75
2024/04/17 05:46:54;;;;;;;18.45;16.45;;;;;;;6.90;81.99;97300.91;5329216;26;20035;-74
2024/04/17 05:49:20;;;;;;;17.42;15.63;;;;;;;6.97;82.08;97301.56;5356919;26;20311;-74
2024/04/17 05:51:45;;;;;;;17.58;15.75;;;;;;;7.05;82.13;97310.25;5355717;26;20014;-76
2024/04/17 05:54:10;;;;;;;18.92;16.95;;;;;;;7.04;81.98;97303.25;5383784;26;20004;-75
2024/04/17 05:56:36;;;;;;;20.25;18.15;;;;;;;7.09;82.06;97322.06;5354947;26;20117;-75
2024/04/17 05:59:01;;;;;;;19.58;17.48;;;;;;;7.07;82.08;97314.28;5343645;26;20048;-75
2024/04/17 06:01:27;;;;;;;19.75;17.70;;;;;;;7.07;82.27;97300.09;5361170;26;20036;-76
2024/04/17 06:03:52;;;;;;;19.98;17.30;;;;;;;7.22;82.15;97319.06;5337029;26;20011;-75
2024/04/17 06:06:17;;;;;;;18.85;16.88;;;;;;;7.24;82.08;97317.75;5354090;26;20332;-74
2024/04/17 06:08:43;;;;;;;19.08;17.08;;;;;;;7.12;82.30;97310.88;5393680;26;20006;-74
2024/04/17 06:11:08;;;;;;;18.25;16.35;;;;;;;7.15;81.84;97307.69;5387267;26;20346;-75
2024/04/17 06:13:33;;;;;;;18.00;16.15;;;;;;;7.21;81.77;97298.72;5388655;26;19995;-74
2024/04/17 06:15:59;;;;;;;18.92;17.02;;;;;;;7.19;82.13;97311.53;5353822;26;19996;-75
2024/04/17 06:18:24;;;;;;;18.35;16.55;;;;;;;7.24;81.35;97309.72;5386329;26;20045;-75
2024/04/17 06:20:50;;;;;;;19.67;17.67;;;;;;;7.15;82.18;97311.19;5352533;26;19999;-74
2024/04/17 06:23:15;;;;;;;18.38;16.58;;;;;;;7.24;81.86;97311.59;5391766;26;19996;-75
2024/04/17 06:25:42;;;;;;;19.30;17.50;;;;;;;7.17;82.40;97297.56;5365046;26;20011;-75
2024/04/17 06:28:07;;;;;;;19.25;17.33;;;;;;;7.44;82.12;97325.31;5394017;26;20007;-75
2024/04/17 06:30:33;;;;;;;17.77;15.98;;;;;;;7.28;82.28;97297.47;5389637;26;19992;-75
2024/04/17 06:32:58;;;;;;;17.42;15.63;;;;;;;7.46;81.84;97317.81;5360037;26;20003;-75
2024/04/17 06:35:23;;;;;;;17.20;15.32;;;;;;;7.43;81.90;97302.25;5387106;26;20011;-76
2024/04/17 06:37:49;;;;;;;17.60;15.80;;;;;;;7.59;81.11;97323.66;5361334;26;20792;-75
2024/04/17 06:40:14;;;;;;;16.85;15.15;;;;;;;7.28;80.73;97277.94;5356131;26;19996;-75
2024/04/17 06:42:39;;;;;;;16.30;14.65;;;;;;;7.58;80.92;97316.66;5339833;26;20015;-75
2024/04/17 06:45:06;;;;;;;16.77;15.07;;;;;;;7.53;81.03;97302.41;5387647;26;20473;-75
2024/04/17 06:47:31;;;;;;;16.27;14.77;;;;;;;7.58;81.16;97326.56;5360967;26;20092;-75
2024/04/17 06:49:57;;;;;;;16.92;15.18;;;;;;;7.52;80.41;97316.84;5358308;26;20003;-75
2024/04/17 06:52:24;;;;;;;16.13;14.63;;;;;;;7.33;80.52;97291.38;5330561;26;19995;-75
2024/04/17 06:54:49;;;;;;;15.85;14.35;;;;;;;7.42;80.34;97306.00;5368635;26;19992;-76
2024/04/17 06:57:16;;;;;;;15.02;13.52;;;;;;;7.61;80.36;97310.00;5418023;26;20752;-74
2024/04/17 06:59:41;;;;;;;16.08;14.40;;;;;;;7.59;80.22;97301.41;5338176;26;20000;-74
2024/04/17 07:02:07;;;;;;;14.77;13.38;;;;;;;7.81;80.03;97315.63;5385429;26;20002;-75
2024/04/17 07:04:32;;;;;;;14.30;12.73;;;;;;;7.83;79.31;97305.47;5357855;26;20545;-75
2024/04/17 07:06:58;;;;;;;13.43;12.13;;;;;;;7.83;79.46;97316.19;5388199;26;19991;-75
2024/04/17 07:09:23;;;;;;;13.88;12.43;;;;;;;7.90;79.31;97335.59;5358546;26;20066;-74
2024/04/17 07:11:48;;;;;;;14.40;12.93;;;;;;;7.86;79.29;97294.28;5386229;26;20073;-74
2024/04/17 07:14:14;;;;;;;12.30;11.00;;;;;;;8.10;79.17;97319.75;5343186;26;20215;-75
2024/04/17 07:16:39;;;;;;;10.85;9.85;;;;;;;8.29;78.36;97323.78;5412488;26;19996;-75
2024/04/17 07:19:05;;;;;;;11.50;9.65;;;;;;;8.34;77.76;97331.88;5351004;26;20042;-76
2024/04/17 07:21:30;;;;;;;11.23;10.23;;;;;;;8.31;77.66;97320.81;5378195;26;20434;-75
2024/04/17 07:23:56;;;;;;;10.50;9.50;;;;;;;8.50;77.51;97315.94;5380711;26;20011;-75
2024/04/17 07:26:22;;;;;;;10.52;9.48;;;;;;;8.47;76.98;97311.88;5321065;26;19996;-75
2024/04/17 07:28:47;;;;;;;10.10;9.20;;;;;;;8.66;76.01;97336.53;5380520;26;20018;-75
2024/04/17 07:31:12;;;;;;;9.48;8.57;;;;;;;8.77;75.66;97335.56;5352580;26;20080;-75
2024/04/17 07:33:38;;;;;;;8.77;7.95;;;;;;;8.67;75.21;97313.97;5338014;26;20000;-75
2024/04/17 07:36:03;;;;;;;8.30;7.50;;;;;;;8.93;75.05;97332.75;5384110;26;20035;-75
2024/04/17 07:38:30;;;;;;;8.60;7.78;;;;;;;8.77;72.82;97325.63;5402135;26;19999;-75
2024/04/17 07:41:02;;;;;;;8.73;7.93;;;;;;;8.74;73.61;97347.59;5385109;26;20017;-74
2024/04/17 07:43:31;;;;;;;8.20;7.50;;;;;;;8.63;72.98;97345.06;5414600;26;20408;-75
2024/04/17 07:46:00;;;;;;;9.57;8.68;;;;;;;8.31;72.89;97336.91;5357287;26;20074;-75
2024/04/17 07:48:26;;;;;;;9.55;8.60;;;;;;;8.25;73.46;97338.72;5326119;26;20044;-75
2024/04/17 07:50:51;;;;;;;9.90;8.90;;;;;;;8.38;73.89;97352.84;5357559;26;20101;-75
2024/04/17 07:53:17;;;;;;;9.00;8.10;;;;;;;8.45;73.43;97337.38;5413435;26;20003;-75
2024/04/17 07:55:42;;;;;;;8.52;7.72;;;;;;;8.27;73.61;97352.72;5383991;26;20053;-75
2024/04/17 07:58:08;;;;;;;9.30;8.40;;;;;;;7.97;73.73;97282.59;5416442;26;20003;-75
2024/04/17 08:00:35;;;;;;;8.00;7.20;;;;;;;8.13;73.27;97326.50;5357226;26;20049;-75
2024/04/17 08:03:00;;;;;;;7.28;6.57;;;;;;;8.25;72.57;97344.09;5360725;26;20003;-75
2024/04/17 08:05:25;;;;;;;7.88;6.32;;;;;;;8.27;72.29;97320.53;5329511;26;20015;-75
2024/04/17 08:07:51;;;;;;;6.95;6.32;;;;;;;8.66;71.79;97361.47;5356866;26;19995;-75
2024/04/17 08:10:16;;;;;;;10.95;7.20;;;;;;;8.39;72.04;97295.44;5384612;26;20022;-75
2024/04/17 08:12:42;;;;;;;6.88;6.00;;;;;;;8.64;71.83;97311.78;5382242;26;20077;-75
2024/04/17 08:15:08;;;;;;;5.72;5.13;;;;;;;8.80;68.97;97338.53;5414643;26;20003;-75
2024/04/17 08:17:34;;;;;;;5.50;5.00;;;;;;;8.87;69.23;97346.38;5356927;26;20486;-75
2024/04/17 08:19:59;;;;;;;7.00;5.60;;;;;;;8.77;69.35;97330.19;5353965;26;20075;-75
2024/04/17 08:22:24;;;;;;;6.18;5.25;;;;;;;8.97;69.36;97330.34;5388294;26;20289;-75
2024/04/17 08:24:50;;;;;;;5.97;5.47;;;;;;;9.20;68.32;97343.44;5323495;26;20004;-75
2024/04/17 08:27:15;;;;;;;7.18;5.40;;;;;;;9.35;68.51;97338.22;5341480;26;20014;-75
2024/04/17 08:29:40;;;;;;;8.00;6.40;;;;;;;9.54;69.00;97352.88;5420217;26;19999;-76
2024/04/17 08:32:07;;;;;;;6.93;5.15;;;;;;;9.22;66.60;97322.50;5351706;26;20014;-75
2024/04/17 08:34:32;;;;;;;7.47;5.53;;;;;;;9.16;67.25;97345.03;5354873;26;20336;-75
2024/04/17 08:36:59;;;;;;;5.55;4.97;;;;;;;9.16;67.25;97347.72;5327028;26;20482;-76
2024/04/17 08:39:25;;;;;;;5.80;5.18;;;;;;;9.38;67.49;97353.78;5355443;26;20004;-76
2024/04/17 08:41:54;;;;;;;8.07;5.05;;;;;;;9.26;65.58;97339.75;5354820;26;19996;-75
2024/04/17 08:44:26;;;;;;;7.50;5.60;;;;;;;9.41;66.74;97358.66;5354788;26;20367;-72
2024/04/17 08:46:52;;;;;;;6.68;5.88;;;;;;;9.55;67.42;97365.22;5343785;26;20000;-75
2024/04/17 08:49:18;;;;;;;6.50;5.60;;;;;;;9.47;67.17;97357.66;5327090;26;20004;-75
2024/04/17 08:51:44;;;;;;;8.50;5.88;;;;;;;9.29;68.18;97355.34;5354369;26;20003;-76
2024/04/17 08:54:09;;;;;;;6.72;5.70;;;;;;;9.69;67.75;97371.78;5357056;26;20347;-75
2024/04/17 08:56:36;;;;;;;6.82;6.07;;;;;;;9.69;66.20;97341.38;5356595;26;19997;-75
2024/04/17 08:59:01;;;;;;;8.70;5.40;;;;;;;9.75;65.26;97338.47;5356637;26;19995;-75
2024/04/17 09:01:32;;;;;;;6.75;4.80;;;;;;;9.77;65.36;97366.97;5355561;26;20007;-75
2024/04/17 09:03:59;;;;;;;5.05;4.55;;;;;;;9.59;64.14;97328.69;5357479;26;19999;-75
2024/04/17 09:06:24;;;;;;;7.30;4.40;;;;;;;9.91;63.75;97354.69;5358275;26;19995;-75
2024/04/17 09:08:50;;;;;;;5.75;4.93;;;;;;;10.11;63.45;97374.47;5328254;26;20064;-75
2024/04/17 09:11:16;;;;;;;6.60;4.03;;;;;;;10.14;62.28;97335.47;5360655;26;19995;-75
2024/04/17 09:13:41;;;;;;;6.75;4.70;;;;;;;10.34;61.83;97362.47;5334332;26;19992;-75
2024/04/17 09:16:07;;;;;;;4.90;3.85;;;;;;;10.38;60.91;97366.25;5354824;26;20422;-75
2024/04/17 09:18:33;;;;;;;5.50;4.60;;;;;;;10.39;61.97;97373.25;5346520;26;20030;-75
2024/04/17 09:20:59;;;;;;;4.43;4.03;;;;;;;10.28;63.22;97367.03;5331252;26;20028;-75
2024/04/17 09:23:25;;;;;;;5.53;4.70;;;;;;;10.15;62.85;97347.88;5346800;26;20388;-75
2024/04/17 09:25:50;;;;;;;6.53;4.60;;;;;;;10.18;61.93;97350.00;5390627;26;19999;-75
2024/04/17 09:28:16;;;;;;;5.55;4.50;;;;;;;10.28;61.88;97350.88;5330209;26;20015;-74
2024/04/17 09:30:41;;;;;;;5.72;3.85;;;;;;;10.68;61.46;97342.13;5387285;26;19986;-75
2024/04/17 09:33:08;;;;;;;4.68;4.13;;;;;;;10.92;61.25;97358.63;5377173;26;19999;-74
2024/04/17 09:35:36;;;;;;;4.80;3.88;;;;;;;10.76;59.73;97322.75;5383989;26;20440;-75
2024/04/17 09:38:02;;;;;;;5.20;3.90;;;;;;;10.57;58.46;97312.75;5389406;26;19991;-75
2024/04/17 09:40:28;;;;;;;4.50;3.40;;;;;;;10.70;57.89;97321.13;5332342;26;20000;-75
2024/04/17 09:42:55;;;;;;;4.63;3.15;;;;;;;10.68;57.31;97352.91;5362788;26;20010;-75
2024/04/17 09:45:24;;;;;;;4.20;3.53;;;;;;;10.66;57.49;97344.28;5343790;26;20148;-75
2024/04/17 09:47:50;;;;;;;5.55;3.28;;;;;;;10.46;56.91;97293.06;5373920;26;20453;-74
2024/04/17 09:50:21;;;;;;;4.18;3.42;;;;;;;10.17;57.24;97248.88;5364795;26;19993;-75
2024/04/17 09:52:49;;;;;;;5.85;3.25;;;;;;;11.03;57.33;97355.66;5342565;26;20023;-75
2024/04/17 09:55:16;;;;;;;4.35;3.25;;;;;;;10.91;56.74;97319.28;5345641;26;20003;-75
2024/04/17 09:57:42;;;;;;;4.07;3.10;;;;;;;10.95;55.80;97331.13;5367046;26;20010;-75
2024/04/17 10:00:10;;;;;;;4.22;2.75;;;;;;;10.90;55.83;97296.91;5393746;26;20003;-75
2024/04/17 10:02:36;;;;;;;5.50;3.25;;;;;;;11.21;55.66;97329.25;5356387;26;20419;-75
2024/04/17 10:05:02;;;;;;;4.93;2.78;;;;;;;11.36;55.79;97305.81;5371074;26;20071;-75
2024/04/17 10:07:28;;;;;;;4.80;2.90;;;;;;;11.43;53.95;97295.56;5361356;26;20012;-75
2024/04/17 10:09:54;;;;;;;5.88;2.95;;;;;;;11.44;54.72;97286.38;5370685;26;20000;-75
2024/04/17 10:12:21;;;;;;;4.82;2.75;;;;;;;11.64;53.77;97313.34;5357574;26;19996;-75
2024/04/17 10:14:48;;;;;;;3.45;2.90;;;;;;;11.36;51.44;97281.56;5352049;26;20503;-75
2024/04/17 10:17:13;;;;;;;3.30;2.50;;;;;;;11.35;52.47;97314.16;5324846;21;20537;-76
2024/04/17 10:19:48;;;;;;;5.85;2.50;;;;;;;11.30;51.27;97328.44;5285137;26;20004;-77
2024/04/17 10:22:15;;;;;;;3.40;2.65;;;;;;;11.49;51.84;97315.22;5335900;26;20336;-76
2024/04/17 10:24:42;;;;;;;3.88;2.33;;;;;;;11.77;51.69;97323.56;5310462;26;20001;-76
2024/04/17 10:27:08;;;;;;;3.60;2.50;;;;;;;11.63;51.36;97327.06;5293983;27;20072;-75
2024/04/17 10:29:33;;;;;;;3.28;2.20;;;;;;;11.27;51.09;97322.81;5334209;26;19993;-76
2024/04/17 10:31:59;;;;;;;2.92;2.15;;;;;;;11.01;52.85;97347.03;5259313;27;20001;-76
2024/04/17 10:34:49;;;;;;;4.70;2.70;;;;;;;10.74;53.07;97330.28;5336385;26;20078;-76
2024/04/17 10:37:16;;;;;;;4.35;2.50;;;;;;;10.93;54.11;97333.28;5286810;26;19997;-76
2024/04/17 10:39:42;;;;;;;3.08;2.60;;;;;;;11.06;54.77;97338.94;5280468;26;20370;-76
2024/04/17 10:42:08;;;;;;;4.60;2.75;;;;;;;11.04;54.52;97334.91;5279398;26;19996;-76
2024/04/17 10:44:44;;;;;;;4.40;2.47;;;;;;;11.05;54.57;97337.34;5304061;26;19997;-75
2024/04/17 10:47:18;;;;;;;4.72;2.90;;;;;;;10.74;57.00;97354.53;5308166;26;20012;-76
2024/04/17 10:49:56;;;;;;;5.18;2.40;;;;;;;10.38;59.32;97331.28;5289769;26;20014;-77
2024/04/17 10:52:22;;;;;;;4.03;2.75;;;;;;;9.99;62.16;97348.84;5287052;26;20080;-76
2024/04/17 10:54:47;;;;;;;5.18;2.70;;;;;;;9.76;62.65;97350.03;5307964;26;20001;-76
2024/04/17 10:57:13;;;;;;;5.25;2.78;;;;;;;9.23;65.12;97367.13;5282686;26;20352;-76
2024/04/17 10:59:46;;;;;;;3.75;2.50;;;;;;;9.20;65.27;97385.59;5340537;26;20002;-76
2024/04/17 11:02:12;;;;;;;4.13;2.50;;;;;;;8.95;66.71;97364.72;5281194;26;20048;-76
2024/04/17 11:04:37;;;;;;;3.72;2.90;;;;;;;8.96;67.35;97390.50;5287898;26;20005;-76
2024/04/17 11:07:06;;;;;;;6.60;3.30;;;;;;;8.78;68.23;97404.25;5282319;27;20464;-76
2024/04/17 11:09:32;;;;;;;3.00;2.70;;;;;;;8.91;67.82;97402.00;5305724;26;20016;-76
2024/04/17 11:11:57;;;;;;;5.43;3.10;;;;;;;8.80;67.42;97394.91;5312145;26;20012;-76
2024/04/17 11:14:23;;;;;;;4.03;2.90;;;;;;;8.75;68.08;97402.09;5310421;27;20001;-76
2024/04/17 11:16:48;;;;;;;4.72;2.90;;;;;;;8.63;68.37;97404.13;5304639;26;20004;-76
2024/04/17 11:19:13;;;;;;;3.72;2.97;;;;;;;8.44;69.52;97392.88;5315061;26;20008;-76
2024/04/17 11:21:39;;;;;;;5.78;3.20;;;;;;;8.45;69.47;97396.41;5287323;26;20008;-76
2024/04/17 11:24:05;;;;;;;4.85;3.20;;;;;;;8.59;70.10;97411.06;5281908;27;20488;-76